Time;durP1;ratioP1;P1;durP2;ratioP2;P2;SDS_P1;SDS_P2;PMS_P1;PMS_P2;Temp;Humidity;BMP_temperature;BMP_pressure;BME280_temperature;BME280_humidity;BME280_pressure;Samples;Min_cycle;Max_cycle;Signal;HPM_P1;HPM_P2
2021/12/04 00:02:06;;;;;;;11.68;7.43;;;;;;;;;;4992557;28;20481;-66
2021/12/04 00:04:37;;;;;;;12.20;7.32;;;;;;;;;;4992603;28;20521;-66
2021/12/04 00:07:05;;;;;;;15.65;7.13;;;;;;;;;;4992727;28;20041;-65
2021/12/04 00:09:31;;;;;;;12.13;7.80;;;;;;;;;;4992616;28;20114;-65
2021/12/04 00:12:02;;;;;;;8.27;5.38;;;;;;;;;;5002265;28;20109;-68
2021/12/04 00:14:32;;;;;;;12.48;7.47;;;;;;;;;;5003860;28;20030;-65
2021/12/04 00:16:58;;;;;;;13.40;7.28;;;;;;;;;;4996079;28;20021;-66
2021/12/04 00:19:25;;;;;;;15.88;8.48;;;;;;;;;;5008580;28;20041;-66
2021/12/04 00:21:51;;;;;;;12.60;7.47;;;;;;;;;;5002405;28;20060;-67
2021/12/04 00:24:17;;;;;;;11.85;7.50;;;;;;;;;;5015736;28;20062;-67
2021/12/04 00:26:44;;;;;;;14.27;7.65;;;;;;;;;;5015628;28;20118;-67
2021/12/04 00:29:10;;;;;;;11.98;7.63;;;;;;;;;;5002886;28;20085;-65
2021/12/04 00:31:35;;;;;;;13.60;7.25;;;;;;;;;;5009982;28;20037;-67
2021/12/04 00:34:02;;;;;;;11.00;7.38;;;;;;;;;;5015549;28;20036;-65
2021/12/04 00:49:58;;;;;;;10.70;7.72;;;;;;;;;;5015183;28;20040;-67
2021/12/04 00:52:24;;;;;;;11.65;6.72;;;;;;;;;;5014755;28;20117;-67
2021/12/04 00:54:50;;;;;;;11.98;7.72;;;;;;;;;;5015172;28;20022;-67
2021/12/04 00:57:15;;;;;;;14.25;7.32;;;;;;;;;;5014790;28;20085;-67
2021/12/04 00:59:41;;;;;;;11.13;6.63;;;;;;;;;;5005983;28;20389;-64
2021/12/04 01:02:06;;;;;;;12.23;7.65;;;;;;;;;;5009246;28;20041;-65
2021/12/04 01:04:32;;;;;;;11.88;8.18;;;;;;;;;;4995337;28;20030;-66
2021/12/04 01:06:58;;;;;;;10.45;6.75;;;;;;;;;;4995228;28;20033;-67
2021/12/04 01:09:25;;;;;;;11.65;7.93;;;;;;;;;;4995174;28;20035;-65
2021/12/04 01:11:53;;;;;;;15.82;8.20;;;;;;;;;;4994805;28;20022;-66
2021/12/04 01:14:22;;;;;;;13.43;8.05;;;;;;;;;;5005848;28;20037;-67
2021/12/04 01:16:48;;;;;;;13.75;8.63;;;;;;;;;;5013841;28;20069;-67
2021/12/04 01:19:14;;;;;;;12.82;7.68;;;;;;;;;;5013906;28;20053;-67
2021/12/04 01:21:41;;;;;;;13.70;8.20;;;;;;;;;;5010857;28;20386;-66
2021/12/04 01:24:07;;;;;;;10.73;6.32;;;;;;;;;;5013397;28;20022;-67
2021/12/04 01:26:33;;;;;;;11.77;7.35;;;;;;;;;;5011883;28;20507;-67
2021/12/04 01:28:58;;;;;;;14.15;8.13;;;;;;;;;;5011313;28;20030;-65
2021/12/04 01:31:24;;;;;;;14.82;7.53;;;;;;;;;;5010139;28;20107;-66
2021/12/04 01:33:50;;;;;;;15.10;8.10;;;;;;;;;;5010238;28;20029;-64
2021/12/04 01:36:15;;;;;;;17.40;8.75;;;;;;;;;;5011090;28;20030;-65
2021/12/04 01:38:41;;;;;;;17.15;8.40;;;;;;;;;;5012046;28;20032;-64
2021/12/04 01:41:07;;;;;;;15.55;8.55;;;;;;;;;;5009160;28;20037;-68
2021/12/04 01:43:33;;;;;;;16.27;8.00;;;;;;;;;;5005926;28;20054;-66
2021/12/04 01:45:58;;;;;;;14.80;8.15;;;;;;;;;;5009601;28;20037;-65
2021/12/04 01:48:24;;;;;;;13.38;7.50;;;;;;;;;;5007839;28;20091;-67
2021/12/04 01:50:52;;;;;;;14.10;8.63;;;;;;;;;;5013731;28;20033;-67
2021/12/04 01:53:18;;;;;;;12.23;7.82;;;;;;;;;;5013797;28;20080;-67
2021/12/04 01:55:44;;;;;;;9.95;6.13;;;;;;;;;;5000276;28;20053;-67
2021/12/04 01:58:11;;;;;;;8.57;6.05;;;;;;;;;;5013637;28;20056;-67
2021/12/04 02:00:40;;;;;;;13.43;8.23;;;;;;;;;;4997397;28;20026;-66
2021/12/04 02:03:13;;;;;;;12.45;8.05;;;;;;;;;;4994157;28;20018;-67
2021/12/04 02:05:40;;;;;;;16.33;9.13;;;;;;;;;;4998244;28;20036;-65
2021/12/04 02:08:07;;;;;;;12.82;7.95;;;;;;;;;;5013337;28;20128;-63
2021/12/04 02:10:33;;;;;;;13.40;8.27;;;;;;;;;;4994097;28;20116;-65
2021/12/04 02:12:59;;;;;;;11.57;7.35;;;;;;;;;;5011410;28;20569;-68
2021/12/04 02:15:25;;;;;;;17.40;8.95;;;;;;;;;;5010925;28;20125;-64
2021/12/04 02:17:51;;;;;;;12.85;7.80;;;;;;;;;;5012054;28;20030;-67
2021/12/04 02:20:19;;;;;;;13.10;7.30;;;;;;;;;;5006950;28;20044;-67
2021/12/04 02:22:46;;;;;;;13.18;7.57;;;;;;;;;;5010420;28;20053;-67
2021/12/04 02:25:12;;;;;;;12.82;8.13;;;;;;;;;;5012170;28;20466;-67
2021/12/04 02:27:38;;;;;;;16.55;7.85;;;;;;;;;;5011533;28;20026;-66
2021/12/04 02:30:07;;;;;;;15.07;8.00;;;;;;;;;;5012971;28;20485;-67
2021/12/04 02:32:33;;;;;;;10.43;7.47;;;;;;;;;;5003222;28;20043;-66
2021/12/04 02:34:59;;;;;;;13.52;7.97;;;;;;;;;;5004765;28;20540;-66
2021/12/04 02:37:25;;;;;;;13.95;8.13;;;;;;;;;;5013070;28;20064;-66
2021/12/04 02:39:58;;;;;;;14.70;8.18;;;;;;;;;;5001108;28;20493;-65
2021/12/04 02:42:27;;;;;;;13.77;7.80;;;;;;;;;;5012202;28;20034;-65
2021/12/04 02:44:52;;;;;;;15.40;8.13;;;;;;;;;;5007435;28;20022;-67
2021/12/04 02:47:18;;;;;;;12.23;6.82;;;;;;;;;;5003600;28;20181;-67
2021/12/04 02:49:44;;;;;;;12.90;7.90;;;;;;;;;;4998376;28;20118;-66
2021/12/04 02:52:11;;;;;;;13.38;8.70;;;;;;;;;;5003430;28;20034;-67
2021/12/04 02:54:37;;;;;;;16.80;8.50;;;;;;;;;;4993061;28;20054;-66
2021/12/04 02:57:06;;;;;;;13.68;8.25;;;;;;;;;;5003056;28;20412;-64
2021/12/04 02:59:33;;;;;;;15.05;9.13;;;;;;;;;;5012333;28;20540;-67
2021/12/04 03:01:59;;;;;;;16.23;8.60;;;;;;;;;;5017281;28;20476;-67
2021/12/04 03:04:26;;;;;;;16.52;8.15;;;;;;;;;;4994923;28;20113;-67
2021/12/04 03:06:53;;;;;;;17.95;9.18;;;;;;;;;;5012782;28;20377;-67
2021/12/04 03:09:20;;;;;;;17.73;8.90;;;;;;;;;;5005685;28;20036;-63
2021/12/04 03:11:46;;;;;;;13.00;7.95;;;;;;;;;;5003755;28;20045;-66
2021/12/04 03:14:11;;;;;;;15.88;8.48;;;;;;;;;;4997161;28;20477;-66
2021/12/04 03:16:39;;;;;;;14.52;8.77;;;;;;;;;;4993161;28;20110;-66
2021/12/04 03:19:05;;;;;;;13.13;7.93;;;;;;;;;;5003365;28;20025;-65
2021/12/04 03:21:32;;;;;;;12.93;7.75;;;;;;;;;;5003407;28;20026;-64
2021/12/04 03:24:01;;;;;;;17.00;8.85;;;;;;;;;;4994202;28;20481;-64
2021/12/04 03:26:27;;;;;;;11.10;6.38;;;;;;;;;;5006134;28;20030;-67
2021/12/04 03:28:55;;;;;;;14.50;8.32;;;;;;;;;;4995889;28;20019;-65
2021/12/04 03:42:23;;;;;;;12.93;7.90;;;;;;;;;;4933171;29;20573;-68
2021/12/04 03:44:50;;;;;;;14.82;8.45;;;;;;;;;;4925136;29;20075;-66
2021/12/04 03:47:16;;;;;;;7.97;4.53;;;;;;;;;;4917223;29;20091;-67
2021/12/04 03:49:42;;;;;;;12.05;6.47;;;;;;;;;;4915039;29;20123;-67
2021/12/04 03:52:09;;;;;;;13.77;7.93;;;;;;;;;;4924620;29;20048;-67
2021/12/04 03:54:35;;;;;;;14.98;8.15;;;;;;;;;;4936463;29;20480;-67
2021/12/04 03:57:04;;;;;;;14.73;7.70;;;;;;;;;;4935366;29;20483;-66
2021/12/04 03:59:38;;;;;;;15.02;8.10;;;;;;;;;;4924597;29;20035;-67
2021/12/04 04:02:06;;;;;;;12.88;7.63;;;;;;;;;;4934248;29;20122;-66
2021/12/04 04:04:32;;;;;;;15.77;8.05;;;;;;;;;;4920387;29;20036;-66
2021/12/04 04:07:00;;;;;;;12.82;8.18;;;;;;;;;;4916989;29;20087;-67
2021/12/04 04:09:27;;;;;;;16.45;7.88;;;;;;;;;;4927169;29;20051;-66
2021/12/04 04:11:53;;;;;;;16.27;8.63;;;;;;;;;;4983673;28;20128;-66
2021/12/04 04:14:18;;;;;;;15.32;8.98;;;;;;;;;;4999982;28;20477;-62
2021/12/04 04:16:44;;;;;;;14.82;8.98;;;;;;;;;;5015494;28;20096;-67
2021/12/04 04:19:10;;;;;;;14.82;9.27;;;;;;;;;;4999013;28;20029;-66
2021/12/04 04:21:44;;;;;;;12.70;8.50;;;;;;;;;;4978510;28;20413;-68
2021/12/04 04:24:12;;;;;;;14.18;7.78;;;;;;;;;;5000523;28;20116;-67
2021/12/04 04:26:38;;;;;;;17.92;9.52;;;;;;;;;;5015055;28;20057;-67
2021/12/04 04:29:04;;;;;;;17.73;9.18;;;;;;;;;;5010667;28;20029;-66
2021/12/04 04:31:31;;;;;;;14.27;6.50;;;;;;;;;;5015593;28;20038;-68
2021/12/04 04:34:02;;;;;;;14.82;8.45;;;;;;;;;;5010095;28;20064;-66
2021/12/04 04:58:20;;;;;;;13.80;8.25;;;;;;;;;;4999133;28;20095;-66
2021/12/04 05:11:42;;;;;;;14.35;8.30;;;;;;;;;;4996256;28;20337;-63
2021/12/04 05:14:09;;;;;;;18.90;9.05;;;;;;;;;;5013341;28;20029;-64
2021/12/04 05:16:45;;;;;;;16.15;9.05;;;;;;;;;;5006834;28;20025;-65
2021/12/04 05:19:26;;;;;;;15.50;9.15;;;;;;;;;;4994762;28;20023;-67
2021/12/04 05:21:52;;;;;;;;;;;;;;;;;;5010196;28;20108;-64
2021/12/04 05:24:17;;;;;;;14.65;8.45;;;;;;;;;;5014238;28;19917;-60
2021/12/04 05:26:43;;;;;;;17.08;8.68;;;;;;;;;;5014101;28;20018;-68
2021/12/04 05:29:08;;;;;;;15.63;9.43;;;;;;;;;;5015827;28;20105;-67
2021/12/04 05:31:34;;;;;;;12.70;8.57;;;;;;;;;;5014264;28;20396;-67
2021/12/04 05:33:59;;;;;;;14.80;8.68;;;;;;;;;;5012749;28;20483;-67
2021/12/04 05:36:25;;;;;;;14.00;8.88;;;;;;;;;;4998491;28;20025;-67
2021/12/04 05:38:52;;;;;;;15.77;9.07;;;;;;;;;;5000066;28;20050;-67
2021/12/04 05:41:18;;;;;;;12.70;8.73;;;;;;;;;;4994551;28;20065;-63
2021/12/04 05:43:43;;;;;;;16.23;9.18;;;;;;;;;;4995551;28;20058;-63
2021/12/04 05:46:17;;;;;;;15.07;9.07;;;;;;;;;;5014112;28;20033;-64
2021/12/04 05:56:45;;;;;;;17.75;9.73;;;;;;;;;;4934300;29;20032;-63
2021/12/04 05:59:10;;;;;;;16.48;9.43;;;;;;;;;;4934197;29;20559;-66
2021/12/04 06:01:36;;;;;;;17.35;9.90;;;;;;;;;;4924708;29;20035;-65
2021/12/04 06:04:01;;;;;;;14.77;9.65;;;;;;;;;;4933718;29;20110;-67
2021/12/04 06:06:27;;;;;;;17.65;10.00;;;;;;;;;;4934038;29;20106;-66
2021/12/04 06:08:53;;;;;;;16.48;9.38;;;;;;;;;;4933795;29;20043;-67
2021/12/04 06:11:18;;;;;;;19.55;10.07;;;;;;;;;;4933503;29;20047;-67
2021/12/04 06:13:44;;;;;;;13.95;8.73;;;;;;;;;;4933987;29;20032;-66
2021/12/04 06:16:11;;;;;;;17.25;10.00;;;;;;;;;;4933623;29;20106;-65
2021/12/04 06:18:36;;;;;;;17.55;9.73;;;;;;;;;;4929795;29;20024;-63
2021/12/04 06:23:47;;;;;;;16.98;9.45;;;;;;;;;;4933828;29;20027;-65
2021/12/04 06:26:13;;;;;;;19.83;9.95;;;;;;;;;;4933698;29;20028;-64
2021/12/04 06:28:38;;;;;;;18.50;9.85;;;;;;;;;;4980240;28;20052;-67
2021/12/04 06:31:07;;;;;;;17.15;9.98;;;;;;;;;;5008855;28;20032;-64
2021/12/04 06:33:33;;;;;;;16.48;9.70;;;;;;;;;;5013352;28;20064;-67
2021/12/04 06:35:58;;;;;;;18.48;10.43;;;;;;;;;;4997500;28;20043;-65
2021/12/04 06:38:24;;;;;;;17.88;10.20;;;;;;;;;;5003489;28;20050;-65
2021/12/04 06:40:50;;;;;;;17.50;10.00;;;;;;;;;;5006338;28;20435;-66
2021/12/04 06:43:16;;;;;;;18.00;10.07;;;;;;;;;;5001894;28;20386;-64
2021/12/04 06:45:43;;;;;;;15.20;9.73;;;;;;;;;;4998953;28;20034;-63
2021/12/04 06:48:14;;;;;;;18.88;9.82;;;;;;;;;;5012732;28;20133;-67
2021/12/04 06:50:51;;;;;;;18.25;11.35;;;;;;;;;;5010588;28;20499;-67
2021/12/04 06:55:49;;;;;;;19.80;10.55;;;;;;;;;;5006419;28;20026;-67
2021/12/04 06:58:16;;;;;;;18.52;11.02;;;;;;;;;;4993604;28;20540;-66
2021/12/04 07:00:42;;;;;;;16.23;10.00;;;;;;;;;;4994614;28;20033;-63
2021/12/04 07:03:07;;;;;;;15.40;10.13;;;;;;;;;;5006441;28;20030;-63
2021/12/04 07:05:33;;;;;;;19.73;10.77;;;;;;;;;;5006678;28;20025;-67
2021/12/04 07:07:58;;;;;;;16.48;10.32;;;;;;;;;;5010803;28;20033;-62
2021/12/04 07:10:24;;;;;;;17.50;10.23;;;;;;;;;;4999623;28;20049;-64
2021/12/04 07:12:50;;;;;;;19.27;11.00;;;;;;;;;;4998867;28;20034;-66
2021/12/04 07:15:15;;;;;;;19.35;10.82;;;;;;;;;;5007829;28;20022;-65
2021/12/04 07:17:41;;;;;;;21.38;10.82;;;;;;;;;;5004521;28;20492;-64
2021/12/04 07:20:08;;;;;;;16.67;11.02;;;;;;;;;;4996216;28;20396;-65
2021/12/04 07:22:34;;;;;;;19.63;11.35;;;;;;;;;;5010369;28;20038;-63
2021/12/04 07:25:00;;;;;;;19.58;10.85;;;;;;;;;;4997119;28;20027;-65
2021/12/04 07:27:28;;;;;;;19.42;10.50;;;;;;;;;;5009975;28;20044;-66
2021/12/04 07:29:54;;;;;;;18.70;10.68;;;;;;;;;;5010302;28;20022;-67
2021/12/04 07:32:19;;;;;;;20.25;11.90;;;;;;;;;;4998627;28;20408;-65
2021/12/04 07:34:45;;;;;;;18.63;12.13;;;;;;;;;;5007153;28;20042;-66
2021/12/04 07:37:10;;;;;;;21.85;12.00;;;;;;;;;;5004925;28;20018;-66
2021/12/04 07:39:36;;;;;;;20.65;11.85;;;;;;;;;;4983037;28;20026;-66
2021/12/04 07:42:02;;;;;;;19.48;11.63;;;;;;;;;;4979949;28;20488;-65
2021/12/04 07:44:27;;;;;;;19.63;11.55;;;;;;;;;;5002324;28;20057;-64
2021/12/04 07:46:53;;;;;;;24.05;10.27;;;;;;;;;;5004036;28;20429;-67
2021/12/04 07:49:18;;;;;;;19.83;9.57;;;;;;;;;;4998657;28;20069;-66
2021/12/04 07:51:44;;;;;;;17.42;10.18;;;;;;;;;;4996365;28;20030;-66
2021/12/04 07:54:10;;;;;;;21.70;12.93;;;;;;;;;;5006245;28;20034;-67
2021/12/04 07:56:36;;;;;;;15.73;10.88;;;;;;;;;;4996376;28;20022;-66
2021/12/04 07:59:02;;;;;;;20.45;13.00;;;;;;;;;;5005900;28;20033;-67
2021/12/04 08:01:28;;;;;;;21.27;11.48;;;;;;;;;;5024688;28;20026;-66
2021/12/04 08:03:54;;;;;;;23.27;14.65;;;;;;;;;;4999063;28;20034;-67
2021/12/04 08:06:20;;;;;;;19.75;10.85;;;;;;;;;;5013092;28;20493;-66
2021/12/04 08:08:45;;;;;;;18.08;11.27;;;;;;;;;;5012767;28;20415;-66
2021/12/04 08:11:11;;;;;;;21.55;13.40;;;;;;;;;;5004264;28;20050;-63
2021/12/04 08:13:37;;;;;;;21.13;12.13;;;;;;;;;;5011211;28;20030;-64
2021/12/04 08:16:02;;;;;;;19.27;12.55;;;;;;;;;;5014192;28;20109;-66
2021/12/04 08:18:28;;;;;;;20.30;12.15;;;;;;;;;;5015614;28;20034;-66
2021/12/04 08:20:54;;;;;;;18.52;12.05;;;;;;;;;;5012710;28;20022;-67
2021/12/04 08:23:19;;;;;;;24.10;12.75;;;;;;;;;;4996814;28;20041;-66
2021/12/04 08:25:47;;;;;;;18.33;12.05;;;;;;;;;;4999987;28;20560;-66
2021/12/04 08:28:12;;;;;;;19.60;12.00;;;;;;;;;;5004789;28;20052;-67
2021/12/04 08:30:40;;;;;;;19.45;12.18;;;;;;;;;;4997948;28;20054;-67
2021/12/04 08:33:06;;;;;;;19.77;11.57;;;;;;;;;;5015381;28;20237;-67
2021/12/04 08:35:35;;;;;;;19.60;12.40;;;;;;;;;;5012620;28;20036;-65
2021/12/04 08:38:01;;;;;;;19.23;12.57;;;;;;;;;;5000756;28;20037;-63
2021/12/04 08:40:28;;;;;;;20.13;12.05;;;;;;;;;;5000530;28;20026;-60
2021/12/04 08:42:54;;;;;;;23.55;12.55;;;;;;;;;;5010782;28;20377;-67
2021/12/04 08:45:20;;;;;;;19.02;10.90;;;;;;;;;;5006934;28;20121;-66
2021/12/04 08:47:46;;;;;;;17.10;11.57;;;;;;;;;;4995491;28;20105;-65
2021/12/04 08:50:21;;;;;;;17.50;10.85;;;;;;;;;;5002988;28;20034;-63
2021/12/04 08:52:47;;;;;;;17.48;12.05;;;;;;;;;;5021571;28;20061;-65
2021/12/04 08:55:14;;;;;;;22.33;12.18;;;;;;;;;;4998162;28;20053;-66
2021/12/04 08:57:39;;;;;;;16.85;10.77;;;;;;;;;;5014391;28;20504;-64
2021/12/04 09:00:15;;;;;;;19.08;11.35;;;;;;;;;;4997355;28;20109;-66
2021/12/04 09:02:42;;;;;;;19.48;11.07;;;;;;;;;;5003447;28;20065;-66
2021/12/04 09:05:10;;;;;;;18.13;11.48;;;;;;;;;;4996393;28;20422;-64
2021/12/04 09:07:36;;;;;;;17.88;12.00;;;;;;;;;;5009745;28;20030;-65
2021/12/04 09:10:02;;;;;;;21.52;12.07;;;;;;;;;;4999872;28;20033;-65
2021/12/04 09:12:29;;;;;;;22.83;12.00;;;;;;;;;;4989750;28;20069;-64
2021/12/04 09:14:56;;;;;;;19.35;12.10;;;;;;;;;;5001649;28;20053;-67
2021/12/04 09:17:22;;;;;;;18.20;11.93;;;;;;;;;;5016298;28;20409;-66
2021/12/04 09:19:49;;;;;;;20.60;12.25;;;;;;;;;;5013006;28;20049;-66
2021/12/04 09:22:25;;;;;;;22.38;12.38;;;;;;;;;;5013305;28;20550;-62
2021/12/04 09:24:55;;;;;;;15.90;10.32;;;;;;;;;;5003617;28;20053;-66
2021/12/04 09:59:48;;;;;;;28.33;14.13;;;;;;;;;;5002484;28;20040;-66
2021/12/04 10:20:22;;;;;;;20.63;12.20;;;;;;;;;;4993825;28;20465;-65
2021/12/04 10:23:16;;;;;;;23.15;13.40;;;;;;;;;;4995813;28;20113;-65
2021/12/04 10:33:56;;;;;;;21.48;11.82;;;;;;;;;;5006214;28;20073;-66
2021/12/04 10:36:36;;;;;;;25.00;13.07;;;;;;;;;;5005598;28;20408;-67
2021/12/04 10:39:04;;;;;;;30.65;13.23;;;;;;;;;;5009153;28;20540;-66
2021/12/04 10:41:32;;;;;;;21.77;12.40;;;;;;;;;;5000926;28;20137;-65
2021/12/04 10:44:18;;;;;;;26.85;14.10;;;;;;;;;;5012603;28;20053;-66
2021/12/04 10:47:04;;;;;;;24.48;11.85;;;;;;;;;;4996343;28;20152;-65
2021/12/04 10:49:47;;;;;;;21.95;12.70;;;;;;;;;;5003507;28;20054;-64
2021/12/04 11:01:13;;;;;;;19.42;11.30;;;;;;;;;;5006678;28;20496;-67
2021/12/04 11:03:49;;;;;;;24.00;13.13;;;;;;;;;;4999884;28;20039;-61
2021/12/04 11:35:15;;;;;;;15.48;9.75;;;;;;;;;;5004491;28;20044;-66
2021/12/04 11:42:56;;;;;;;20.95;11.98;;;;;;;;;;5005954;28;20030;-66
2021/12/04 11:45:30;;;;;;;19.35;11.38;;;;;;;;;;5011468;28;20026;-65
2021/12/04 11:48:05;;;;;;;15.63;10.30;;;;;;;;;;5001880;28;20045;-63
2021/12/04 11:50:37;;;;;;;19.20;11.40;;;;;;;;;;5016516;28;20477;-62
2021/12/04 11:53:11;;;;;;;25.70;13.88;;;;;;;;;;5005620;28;20018;-65
2021/12/04 11:55:41;;;;;;;19.63;11.43;;;;;;;;;;4999830;28;20109;-63
2021/12/04 11:58:31;;;;;;;;;;;;;;;;;;4994924;28;20022;-65
2021/12/04 12:01:04;;;;;;;11.60;7.55;;;;;;;;;;5009909;28;19925;-64
2021/12/04 12:03:33;;;;;;;20.63;11.55;;;;;;;;;;5020572;28;20030;-66
2021/12/04 12:06:05;;;;;;;19.55;10.43;;;;;;;;;;5016967;28;20069;-64
2021/12/04 12:08:34;;;;;;;18.15;10.32;;;;;;;;;;5020320;28;20026;-66
2021/12/04 12:11:08;;;;;;;23.70;11.43;;;;;;;;;;5015334;28;20688;-66
2021/12/04 12:13:35;;;;;;;19.38;11.10;;;;;;;;;;5013926;28;20025;-67
2021/12/04 12:16:09;;;;;;;13.48;7.97;;;;;;;;;;5015229;28;20037;-67
2021/12/04 12:18:57;;;;;;;21.70;12.65;;;;;;;;;;5014378;28;20025;-64
2021/12/04 12:21:40;;;;;;;25.95;13.63;;;;;;;;;;5012786;28;20058;-66
2021/12/04 12:36:14;;;;;;;20.38;11.57;;;;;;;;;;5014551;28;20477;-72
2021/12/04 12:38:59;;;;;;;25.52;11.48;;;;;;;;;;5010353;28;20539;-65
2021/12/04 12:41:38;;;;;;;23.20;12.50;;;;;;;;;;5013960;28;20041;-67
2021/12/04 12:44:15;;;;;;;21.92;11.13;;;;;;;;;;5012503;28;20054;-65
2021/12/04 12:46:53;;;;;;;21.70;11.10;;;;;;;;;;5004125;28;20397;-60
2021/12/04 12:49:39;;;;;;;16.90;10.18;;;;;;;;;;5011522;28;20049;-60
2021/12/04 12:52:29;;;;;;;19.15;11.40;;;;;;;;;;5018099;28;20045;-59
2021/12/04 12:54:57;;;;;;;19.67;11.77;;;;;;;;;;5012563;28;20033;-60
2021/12/04 12:57:27;;;;;;;23.67;12.20;;;;;;;;;;5013302;28;20477;-63
2021/12/04 13:14:15;;;;;;;17.60;10.93;;;;;;;;;;4998188;28;20080;-66
2021/12/04 13:16:55;;;;;;;20.77;11.57;;;;;;;;;;5010545;28;20088;-68
2021/12/04 13:19:23;;;;;;;17.15;10.85;;;;;;;;;;5011259;28;20033;-66
2021/12/04 13:21:53;;;;;;;20.45;11.23;;;;;;;;;;5010970;28;20073;-66
2021/12/04 13:24:23;;;;;;;21.77;12.07;;;;;;;;;;5005555;28;20053;-63
2021/12/04 13:26:51;;;;;;;;;;;;;;;;;;5010150;28;20264;-61
2021/12/04 13:29:19;;;;;;;16.55;9.15;;;;;;;;;;5009729;28;19917;-65
2021/12/04 13:31:45;;;;;;;17.00;9.77;;;;;;;;;;5010194;28;20023;-64
2021/12/04 13:34:14;;;;;;;18.98;10.95;;;;;;;;;;5004400;28;20428;-62
2021/12/04 13:36:44;;;;;;;18.25;10.82;;;;;;;;;;4995310;28;20485;-64
2021/12/04 13:39:13;;;;;;;14.63;9.25;;;;;;;;;;4993032;28;20057;-66
2021/12/04 13:41:41;;;;;;;9.43;6.55;;;;;;;;;;4993601;28;20097;-65
2021/12/04 13:44:08;;;;;;;12.55;8.43;;;;;;;;;;5003523;28;20018;-65
2021/12/04 13:46:43;;;;;;;16.50;9.90;;;;;;;;;;4996203;28;20527;-65
2021/12/04 13:49:10;;;;;;;18.10;11.05;;;;;;;;;;4993444;28;20502;-65
2021/12/04 13:51:36;;;;;;;15.98;10.02;;;;;;;;;;4993062;28;20035;-65
2021/12/04 13:54:02;;;;;;;16.52;10.27;;;;;;;;;;5004209;28;20029;-64
2021/12/04 13:56:29;;;;;;;18.92;11.10;;;;;;;;;;4993504;28;20053;-65
2021/12/04 13:58:57;;;;;;;17.75;11.02;;;;;;;;;;4992498;28;20023;-65
2021/12/04 14:01:25;;;;;;;15.20;9.35;;;;;;;;;;5003125;28;20033;-66
2021/12/04 14:04:02;;;;;;;12.27;8.15;;;;;;;;;;4999813;28;20106;-57
2021/12/04 14:06:28;;;;;;;18.67;11.02;;;;;;;;;;4999313;28;20044;-64
2021/12/04 14:09:07;;;;;;;17.02;9.93;;;;;;;;;;5013175;28;20021;-62
2021/12/04 14:11:36;;;;;;;9.77;6.97;;;;;;;;;;5012575;28;20072;-66
2021/12/04 14:14:16;;;;;;;15.55;9.50;;;;;;;;;;4997439;28;20105;-65
2021/12/04 14:16:43;;;;;;;11.55;7.97;;;;;;;;;;4993937;28;20108;-60
2021/12/04 14:19:17;;;;;;;19.55;11.18;;;;;;;;;;4993907;28;20026;-65
2021/12/04 14:22:06;;;;;;;17.80;10.98;;;;;;;;;;4993866;28;20026;-63
2021/12/04 14:24:59;;;;;;;44.20;18.00;;;;;;;;;;5002291;28;20034;-65
2021/12/04 14:27:34;;;;;;;25.65;15.18;;;;;;;;;;5013000;28;20104;-65
2021/12/04 14:30:21;;;;;;;23.52;13.90;;;;;;;;;;5012880;28;20033;-64
2021/12/04 14:32:55;;;;;;;15.27;9.57;;;;;;;;;;5012788;28;20053;-61
2021/12/04 14:35:22;;;;;;;15.75;10.02;;;;;;;;;;5002807;28;20033;-64
2021/12/04 14:37:50;;;;;;;15.20;9.75;;;;;;;;;;5003253;28;20026;-66
2021/12/04 14:40:23;;;;;;;15.85;9.93;;;;;;;;;;5013092;28;20026;-64
2021/12/04 14:42:50;;;;;;;18.65;10.73;;;;;;;;;;5013330;28;20425;-62
2021/12/04 14:45:21;;;;;;;16.98;9.18;;;;;;;;;;5012649;28;20504;-67
2021/12/04 14:48:09;;;;;;;20.17;11.40;;;;;;;;;;5012821;28;20432;-61
2021/12/04 14:50:58;;;;;;;17.73;10.98;;;;;;;;;;5006169;28;20518;-60
2021/12/04 14:53:24;;;;;;;21.48;13.15;;;;;;;;;;4993241;28;20026;-61
2021/12/04 14:55:51;;;;;;;20.58;11.10;;;;;;;;;;4993344;28;20151;-59
2021/12/04 14:58:23;;;;;;;21.50;11.80;;;;;;;;;;5000562;28;20105;-65
2021/12/04 15:00:50;;;;;;;14.75;8.45;;;;;;;;;;5002909;28;20037;-66
2021/12/04 15:03:30;;;;;;;27.80;13.65;;;;;;;;;;4995654;28;20049;-64
2021/12/04 15:05:59;;;;;;;29.10;15.77;;;;;;;;;;4975482;28;20102;-65
2021/12/04 15:08:27;;;;;;;18.42;10.63;;;;;;;;;;4993023;28;20030;-65
2021/12/04 15:10:59;;;;;;;30.33;16.33;;;;;;;;;;5005340;28;20048;-66
2021/12/04 15:13:29;;;;;;;32.50;17.75;;;;;;;;;;4999331;28;20421;-66
2021/12/04 15:15:58;;;;;;;;;;;;;;;;;;5000461;28;20093;-66
2021/12/04 15:18:25;;;;;;;34.50;16.30;;;;;;;;;;5012238;28;20029;-66
2021/12/04 15:20:56;;;;;;;32.80;15.70;;;;;;;;;;5012611;28;20026;-66
2021/12/04 15:23:23;;;;;;;23.02;11.93;;;;;;;;;;5012432;28;20053;-66
2021/12/04 15:25:54;;;;;;;30.40;15.27;;;;;;;;;;5012059;28;20022;-66
2021/12/04 15:28:24;;;;;;;28.45;14.50;;;;;;;;;;5012363;28;20034;-65
2021/12/04 15:30:57;;;;;;;35.30;17.25;;;;;;;;;;5012579;28;20041;-64
2021/12/04 15:33:38;;;;;;;26.15;13.60;;;;;;;;;;5012595;28;20053;-65
2021/12/04 15:36:05;;;;;;;26.52;12.40;;;;;;;;;;5011780;28;20437;-63
2021/12/04 15:38:40;;;;;;;32.65;15.63;;;;;;;;;;4992987;28;20034;-64
2021/12/04 15:43:58;;;;;;;40.45;19.63;;;;;;;;;;5016321;28;20030;-66
2021/12/04 15:54:18;;;;;;;35.28;16.65;;;;;;;;;;5003710;28;20030;-65
2021/12/04 15:56:47;;;;;;;32.47;16.60;;;;;;;;;;5015961;28;20121;-65
2021/12/04 15:59:18;;;;;;;28.20;14.45;;;;;;;;;;5016121;28;20026;-65
2021/12/04 16:01:44;;;;;;;23.98;12.52;;;;;;;;;;5015979;28;20026;-65
2021/12/04 16:04:19;;;;;;;26.63;13.93;;;;;;;;;;5011168;28;20596;-64
2021/12/04 16:06:45;;;;;;;39.38;21.33;;;;;;;;;;4996165;28;20060;-65
2021/12/04 16:09:12;;;;;;;33.58;13.65;;;;;;;;;;4996133;28;20101;-63
2021/12/04 16:11:41;;;;;;;22.58;10.68;;;;;;;;;;4995978;28;20097;-63
2021/12/04 16:14:10;;;;;;;21.88;11.10;;;;;;;;;;5002844;28;20028;-65
2021/12/04 16:16:41;;;;;;;22.17;11.60;;;;;;;;;;5015771;28;20030;-64
2021/12/04 16:19:08;;;;;;;37.65;17.20;;;;;;;;;;5015951;28;20404;-64
2021/12/04 16:21:35;;;;;;;31.13;15.50;;;;;;;;;;5015769;28;20041;-65
2021/12/04 16:24:05;;;;;;;29.63;15.23;;;;;;;;;;5015838;28;20024;-65
2021/12/04 16:26:31;;;;;;;29.52;15.25;;;;;;;;;;5015429;28;20029;-65
2021/12/04 16:37:31;;;;;;;36.33;15.95;;;;;;;;;;4996232;28;20040;-58
2021/12/04 16:39:58;;;;;;;42.37;17.70;;;;;;;;;;4995385;28;20040;-64
2021/12/04 16:42:25;;;;;;;71.18;30.52;;;;;;;;;;5003972;28;20263;-61
2021/12/04 16:44:51;;;;;;;206.77;77.40;;;;;;;;;;5014863;28;20017;-64
2021/12/04 16:47:17;;;;;;;125.47;51.20;;;;;;;;;;5015141;28;20026;-64
2021/12/04 16:49:43;;;;;;;64.85;31.33;;;;;;;;;;5014705;28;20053;-59
2021/12/04 16:57:27;;;;;;;53.97;25.45;;;;;;;;;;5014457;28;20030;-61
2021/12/04 16:59:55;;;;;;;50.97;23.35;;;;;;;;;;4995865;28;20409;-65
2021/12/04 17:02:23;;;;;;;37.35;17.48;;;;;;;;;;5006571;28;20049;-62
2021/12/04 17:04:52;;;;;;;59.28;23.17;;;;;;;;;;4997295;28;20041;-64
2021/12/04 17:07:20;;;;;;;33.60;18.70;;;;;;;;;;4999897;28;20026;-64
2021/12/04 17:09:47;;;;;;;54.28;22.63;;;;;;;;;;4995125;28;20054;-67
2021/12/04 17:12:12;;;;;;;37.22;18.17;;;;;;;;;;4995136;28;20026;-66
2021/12/04 17:14:38;;;;;;;169.52;57.38;;;;;;;;;;4995248;28;20100;-65
2021/12/04 17:17:08;;;;;;;92.53;43.03;;;;;;;;;;4995099;28;20027;-66
2021/12/04 17:19:33;;;;;;;;;;;;;;;;;;4978203;28;20027;-64
2021/12/04 17:21:59;;;;;;;46.10;22.88;;;;;;;;;;4994777;28;19941;-65
2021/12/04 17:24:30;;;;;;;53.22;23.60;;;;;;;;;;4994592;28;20386;-66
2021/12/04 17:26:58;;;;;;;39.67;22.83;;;;;;;;;;5010178;28;20046;-62
2021/12/04 17:29:24;;;;;;;28.52;15.40;;;;;;;;;;5014470;28;20064;-66
2021/12/04 17:31:51;;;;;;;33.70;17.20;;;;;;;;;;5014123;28;20062;-66
2021/12/04 17:34:17;;;;;;;50.10;24.05;;;;;;;;;;5014346;28;20057;-66
2021/12/04 17:36:43;;;;;;;34.33;15.80;;;;;;;;;;5014341;28;20025;-63
2021/12/04 17:39:10;;;;;;;25.42;12.77;;;;;;;;;;5006020;28;20503;-66
2021/12/04 17:41:36;;;;;;;39.78;15.93;;;;;;;;;;4996226;28;20022;-65
2021/12/04 17:44:14;;;;;;;28.40;13.38;;;;;;;;;;5010955;28;20022;-60
2021/12/04 17:46:40;;;;;;;30.58;14.00;;;;;;;;;;5010389;28;20105;-63
2021/12/04 17:49:07;;;;;;;41.80;19.67;;;;;;;;;;5004280;28;20042;-65
2021/12/04 17:51:34;;;;;;;30.73;17.02;;;;;;;;;;5029103;28;20021;-66
2021/12/04 17:54:03;;;;;;;29.05;15.00;;;;;;;;;;5005200;28;20029;-66
2021/12/04 17:56:30;;;;;;;35.67;16.15;;;;;;;;;;4994418;28;20054;-65
2021/12/04 17:58:58;;;;;;;26.50;13.50;;;;;;;;;;4994242;28;20035;-66
2021/12/04 18:01:33;;;;;;;43.97;19.75;;;;;;;;;;4997607;28;20113;-62
2021/12/04 18:03:59;;;;;;;40.70;20.08;;;;;;;;;;5013355;28;20030;-66
2021/12/04 18:06:26;;;;;;;25.48;12.43;;;;;;;;;;5013743;28;20028;-65
2021/12/04 18:08:53;;;;;;;33.85;16.25;;;;;;;;;;5013589;28;20040;-64
2021/12/04 18:11:25;;;;;;;41.75;18.60;;;;;;;;;;5009748;28;20477;-64
2021/12/04 18:13:53;;;;;;;36.17;16.23;;;;;;;;;;4994228;28;20434;-65
2021/12/04 18:16:24;;;;;;;59.67;26.73;;;;;;;;;;4993982;28;20519;-63